Time;durP1;ratioP1;P1;durP2;ratioP2;P2;SDS_P1;SDS_P2;PMS_P1;PMS_P2;Temp;Humidity;BMP_temperature;BMP_pressure;BME280_temperature;BME280_humidity;BME280_pressure;Samples;Min_cycle;Max_cycle;Signal;HPM_P1;HPM_P2
2022/02/19 00:01:47;;;;;;;10.73;2.00;;;;;;;5.14;47.80;97209.53;4187284;28;20521;-71
2022/02/19 00:03:47;;;;;;;5.05;1.23;;;;;;;5.05;48.87;97204.31;4194215;28;20084;-71
2022/02/19 00:05:47;;;;;;;7.63;2.00;;;;;;;5.06;48.60;97178.47;4190328;28;20043;-71
2022/02/19 00:07:48;;;;;;;6.35;1.45;;;;;;;5.06;48.68;97186.72;4192589;28;20454;-72
2022/02/19 00:09:48;;;;;;;3.38;1.38;;;;;;;5.00;49.13;97192.88;4194782;28;20040;-71
2022/02/19 00:11:50;;;;;;;6.78;1.75;;;;;;;4.99;50.13;97211.28;4192965;28;20045;-71
2022/02/19 00:13:51;;;;;;;8.65;1.80;;;;;;;4.97;50.17;97199.91;4190534;28;20044;-71
2022/02/19 00:15:52;;;;;;;4.82;1.65;;;;;;;4.98;50.33;97209.72;4193530;28;20048;-71
2022/02/19 00:17:54;;;;;;;5.80;1.70;;;;;;;4.96;50.70;97220.22;4193524;28;20549;-71
2022/02/19 00:19:54;;;;;;;5.57;1.55;;;;;;;4.95;50.71;97217.88;4192890;28;20071;-71
2022/02/19 00:21:55;;;;;;;7.80;1.73;;;;;;;4.89;50.36;97213.91;4192535;28;20048;-71
2022/02/19 00:23:55;;;;;;;7.05;1.50;;;;;;;4.84;52.50;97214.22;4192431;28;20044;-71
2022/02/19 00:25:57;;;;;;;7.40;1.60;;;;;;;4.93;49.90;97228.41;4192076;28;20120;-71
2022/02/19 00:27:57;;;;;;;5.15;1.40;;;;;;;4.92;51.06;97232.31;4193122;28;20045;-71
2022/02/19 00:29:58;;;;;;;5.35;1.48;;;;;;;4.96;49.42;97208.47;4193859;28;20280;-71
2022/02/19 00:31:58;;;;;;;6.75;1.90;;;;;;;4.96;50.67;97216.72;4192646;28;20391;-71
2022/02/19 00:33:58;;;;;;;7.05;1.65;;;;;;;4.97;51.12;97208.13;4192233;28;20074;-71
2022/02/19 00:35:59;;;;;;;6.35;1.48;;;;;;;4.99;51.03;97238.69;4188639;28;20174;-71
2022/02/19 00:37:59;;;;;;;3.60;1.77;;;;;;;5.01;51.89;97211.69;4191728;28;20376;-71
2022/02/19 00:40:00;;;;;;;6.95;2.33;;;;;;;5.01;50.81;97224.63;4192093;28;20047;-71
2022/02/19 00:42:02;;;;;;;5.82;1.92;;;;;;;5.05;51.16;97236.44;4190300;28;20492;-71
2022/02/19 00:44:03;;;;;;;4.70;1.73;;;;;;;5.11;51.43;97215.72;4190354;28;20695;-72
2022/02/19 00:46:03;;;;;;;5.40;1.63;;;;;;;5.08;52.13;97221.97;4191818;28;20048;-72
2022/02/19 00:48:04;;;;;;;3.67;1.70;;;;;;;5.07;52.08;97239.59;4190099;28;20055;-72
2022/02/19 00:50:05;;;;;;;5.38;1.63;;;;;;;5.03;52.15;97233.25;4192953;28;20434;-72
2022/02/19 00:52:05;;;;;;;4.63;2.10;;;;;;;5.05;52.12;97272.06;4190720;28;20508;-71
2022/02/19 00:54:05;;;;;;;7.03;1.63;;;;;;;5.06;51.00;97263.47;4189868;28;20032;-72
2022/02/19 00:56:09;;;;;;;6.80;1.50;;;;;;;5.06;52.15;97243.50;4193054;28;20036;-72
2022/02/19 00:58:09;;;;;;;6.10;1.60;;;;;;;5.01;52.62;97233.63;4193393;28;20021;-71
2022/02/19 01:00:10;;;;;;;4.32;1.70;;;;;;;5.04;53.09;97260.28;4191178;28;20486;-71
2022/02/19 01:02:10;;;;;;;3.55;1.40;;;;;;;4.99;53.30;97293.53;4193691;28;20052;-71
2022/02/19 01:04:11;;;;;;;2.90;1.45;;;;;;;5.01;51.72;97273.97;4191445;28;20024;-71
2022/02/19 01:06:11;;;;;;;3.92;1.83;;;;;;;4.99;53.43;97279.81;4190217;28;20095;-71
2022/02/19 01:08:11;;;;;;;3.20;1.50;;;;;;;4.95;53.61;97302.84;4189102;28;20107;-71
2022/02/19 01:10:12;;;;;;;4.15;1.30;;;;;;;4.92;52.86;97300.84;4188090;28;20853;-71
2022/02/19 01:12:12;;;;;;;2.05;0.93;;;;;;;4.84;53.66;97282.72;4192087;28;20476;-71
2022/02/19 01:14:12;;;;;;;4.63;1.80;;;;;;;4.80;52.67;97321.03;4192569;28;20051;-71
2022/02/19 01:16:13;;;;;;;7.20;1.48;;;;;;;4.82;52.98;97326.16;4191507;28;20035;-71
2022/02/19 01:18:13;;;;;;;6.55;1.45;;;;;;;4.75;53.51;97329.56;4191729;28;20024;-71
2022/02/19 01:20:14;;;;;;;6.68;1.83;;;;;;;4.73;54.34;97309.97;4191240;28;20029;-71
2022/02/19 01:22:14;;;;;;;4.78;1.20;;;;;;;4.62;55.01;97328.97;4191430;28;20024;-71
2022/02/19 01:24:14;;;;;;;3.85;1.30;;;;;;;4.70;54.09;97355.31;4194694;28;20052;-71
2022/02/19 01:26:15;;;;;;;3.50;1.52;;;;;;;4.71;53.84;97334.97;4192642;28;20508;-71
2022/02/19 01:28:15;;;;;;;4.75;1.27;;;;;;;4.60;54.35;97325.00;4188648;28;20418;-72
2022/02/19 01:30:15;;;;;;;4.38;1.13;;;;;;;4.58;55.30;97336.34;4196202;28;20031;-71
2022/02/19 01:32:16;;;;;;;6.30;1.30;;;;;;;4.61;54.50;97327.38;4189448;28;20032;-72
2022/02/19 01:34:16;;;;;;;5.90;1.25;;;;;;;4.64;55.09;97375.19;4188004;28;20029;-71
2022/02/19 01:36:17;;;;;;;5.10;1.20;;;;;;;4.70;54.30;97346.31;4188902;28;20754;-71
2022/02/19 01:38:18;;;;;;;5.45;1.40;;;;;;;4.65;54.04;97328.25;4202502;28;20032;-71
2022/02/19 01:40:18;;;;;;;2.35;1.13;;;;;;;4.54;54.81;97337.44;4190485;28;20032;-72
2022/02/19 01:42:19;;;;;;;8.02;2.67;;;;;;;4.45;56.06;97346.69;4188535;28;20048;-71
2022/02/19 01:44:20;;;;;;;6.80;1.80;;;;;;;4.48;55.75;97378.03;4192643;28;20024;-71
2022/02/19 01:46:20;;;;;;;5.57;1.48;;;;;;;4.47;55.84;97371.00;4188509;28;20048;-71
2022/02/19 01:48:20;;;;;;;4.22;1.40;;;;;;;4.38;55.66;97382.16;4186767;28;20538;-71
2022/02/19 01:50:21;;;;;;;7.47;1.98;;;;;;;4.33;55.66;97376.19;4199083;28;20101;-71
2022/02/19 01:52:23;;;;;;;5.75;1.70;;;;;;;4.35;55.74;97390.31;4201608;28;20048;-71
2022/02/19 01:54:23;;;;;;;6.47;1.30;;;;;;;4.23;55.27;97386.59;4198541;28;20103;-72
2022/02/19 01:56:24;;;;;;;3.38;1.08;;;;;;;4.16;55.24;97408.38;4186853;28;20626;-71
2022/02/19 01:58:25;;;;;;;3.55;1.00;;;;;;;4.19;55.37;97404.88;4190085;28;20143;-73
2022/02/19 02:00:25;;;;;;;3.85;1.27;;;;;;;4.14;55.10;97409.88;4193352;28;20071;-73
2022/02/19 02:02:26;;;;;;;2.63;1.25;;;;;;;4.12;55.45;97410.22;4188781;28;20508;-73
2022/02/19 02:04:27;;;;;;;6.95;1.60;;;;;;;4.09;55.29;97391.78;4189856;28;20041;-72
2022/02/19 02:06:27;;;;;;;7.47;1.80;;;;;;;4.04;56.33;97408.50;4187453;28;20052;-73
2022/02/19 02:08:28;;;;;;;4.50;1.23;;;;;;;4.04;55.34;97394.03;4186448;28;20400;-73
2022/02/19 02:10:29;;;;;;;6.00;1.45;;;;;;;4.00;55.02;97426.00;4187749;28;20292;-71
2022/02/19 02:12:30;;;;;;;8.10;1.20;;;;;;;4.06;54.84;97408.16;4187541;28;20037;-73
2022/02/19 02:14:30;;;;;;;5.80;1.60;;;;;;;3.99;54.17;97416.22;4185917;28;20361;-72
2022/02/19 02:16:38;;;;;;;4.85;1.48;;;;;;;4.01;54.29;97408.44;4188576;28;20032;-73
2022/02/19 02:18:38;;;;;;;4.47;1.40;;;;;;;3.96;54.68;97401.28;4202815;28;20409;-73
2022/02/19 02:20:38;;;;;;;2.45;1.20;;;;;;;3.94;54.25;97411.81;4201011;28;20503;-73
2022/02/19 02:22:38;;;;;;;4.03;1.42;;;;;;;3.89;55.35;97421.13;4202298;28;20043;-73
2022/02/19 02:24:39;;;;;;;7.00;1.33;;;;;;;3.87;54.60;97412.47;4188120;28;20072;-73
2022/02/19 02:26:40;;;;;;;1.33;1.00;;;;;;;3.91;54.69;97410.59;4186403;28;20401;-73
2022/02/19 02:28:40;;;;;;;2.85;1.20;;;;;;;3.84;55.09;97421.41;4188796;28;20212;-73
2022/02/19 02:30:40;;;;;;;4.13;1.10;;;;;;;3.82;54.74;97429.19;4186453;28;20292;-73
2022/02/19 02:32:41;;;;;;;1.95;1.05;;;;;;;3.82;54.68;97448.34;4186544;28;20040;-73
2022/02/19 02:34:54;;;;;;;1.95;0.93;;;;;;;3.87;54.37;97425.34;4186508;28;20040;-73
2022/02/19 02:36:54;;;;;;;4.35;1.58;;;;;;;3.88;55.02;97429.66;4185807;28;20050;-73
2022/02/19 02:38:57;;;;;;;3.88;1.08;;;;;;;3.81;54.98;97435.81;4201712;28;20538;-73
2022/02/19 02:40:58;;;;;;;7.68;1.30;;;;;;;3.87;54.80;97419.88;4192402;28;20053;-73
2022/02/19 02:42:58;;;;;;;4.50;1.15;;;;;;;3.78;55.50;97425.56;4193918;28;20105;-73
2022/02/19 02:44:59;;;;;;;3.00;1.30;;;;;;;3.71;55.30;97439.09;4187517;28;20400;-73
2022/02/19 02:46:59;;;;;;;3.63;1.25;;;;;;;3.66;55.61;97440.19;4186428;28;20553;-73
2022/02/19 02:48:59;;;;;;;3.95;1.13;;;;;;;3.76;54.98;97438.03;4186529;28;20052;-73
2022/02/19 02:51:01;;;;;;;5.47;1.35;;;;;;;3.78;54.89;97443.94;4193605;28;20522;-73
2022/02/19 02:53:02;;;;;;;1.47;0.90;;;;;;;3.79;54.70;97461.91;4200567;28;20123;-73
2022/02/19 02:55:05;;;;;;;3.80;1.20;;;;;;;3.80;55.31;97464.28;4200476;28;20378;-73
2022/02/19 02:57:05;;;;;;;2.42;0.95;;;;;;;3.74;54.57;97464.97;4197985;28;20032;-73
2022/02/19 02:59:05;;;;;;;6.63;2.22;;;;;;;3.74;54.52;97464.97;4186480;28;20072;-73
2022/02/19 03:01:06;;;;;;;2.30;1.13;;;;;;;3.69;53.99;97463.28;4188786;28;20088;-72
2022/02/19 03:03:06;;;;;;;1.90;0.93;;;;;;;3.64;55.22;97475.31;4192232;28;20538;-73
2022/02/19 03:05:08;;;;;;;4.53;1.25;;;;;;;3.67;54.71;97469.13;4199425;28;20051;-73
2022/02/19 03:07:08;;;;;;;6.78;1.27;;;;;;;3.63;54.15;97476.44;4199762;28;20110;-73
2022/02/19 03:09:09;;;;;;;2.78;1.38;;;;;;;3.66;53.83;97455.81;4190208;28;20048;-73
2022/02/19 03:11:09;;;;;;;4.63;1.10;;;;;;;3.65;54.86;97454.22;4189984;28;20087;-73
2022/02/19 03:13:10;;;;;;;3.88;1.10;;;;;;;3.73;54.24;97477.84;4201040;28;20555;-73
2022/02/19 03:15:10;;;;;;;2.97;1.10;;;;;;;3.72;54.22;97478.97;4186408;28;20054;-73
2022/02/19 03:17:11;;;;;;;7.20;1.52;;;;;;;3.67;53.88;97455.44;4188953;28;20035;-73
2022/02/19 03:19:11;;;;;;;3.92;1.00;;;;;;;3.70;53.14;97486.75;4201354;28;20044;-73
2022/02/19 03:21:11;;;;;;;5.65;1.60;;;;;;;3.64;53.55;97472.56;4198743;28;20047;-73
2022/02/19 03:23:12;;;;;;;4.05;1.00;;;;;;;3.70;53.39;97500.44;4185887;28;20040;-73
2022/02/19 03:25:14;;;;;;;3.63;1.30;;;;;;;3.66;54.36;97502.31;4196747;28;20043;-73
2022/02/19 03:27:14;;;;;;;5.85;1.30;;;;;;;3.62;54.69;97502.22;4184341;28;20044;-73
2022/02/19 03:29:14;;;;;;;2.38;0.90;;;;;;;3.58;54.91;97511.50;4186215;28;20110;-73
2022/02/19 03:31:15;;;;;;;4.70;1.20;;;;;;;3.63;54.80;97511.19;4185455;28;20533;-73
2022/02/19 03:33:15;;;;;;;8.27;1.20;;;;;;;3.58;55.40;97504.09;4185825;28;20047;-73
2022/02/19 03:35:15;;;;;;;7.43;1.30;;;;;;;3.55;55.28;97523.13;4186233;28;20080;-73
2022/02/19 03:37:16;;;;;;;3.28;1.50;;;;;;;3.54;55.93;97524.28;4184995;28;20598;-73
2022/02/19 03:39:16;;;;;;;3.90;1.17;;;;;;;3.52;56.09;97519.16;4186145;28;20052;-73
2022/02/19 03:41:16;;;;;;;4.25;1.20;;;;;;;3.56;56.54;97533.75;4185714;28;20044;-73
2022/02/19 03:43:17;;;;;;;1.83;1.00;;;;;;;3.54;56.86;97537.94;4186135;28;20064;-73
2022/02/19 03:45:17;;;;;;;6.53;1.50;;;;;;;3.59;56.83;97535.75;4187271;28;20528;-73
2022/02/19 03:47:17;;;;;;;4.78;1.92;;;;;;;3.52;57.95;97548.47;4190424;28;20064;-73
2022/02/19 03:49:18;;;;;;;5.43;1.35;;;;;;;3.54;58.80;97535.22;4192503;28;20356;-73
2022/02/19 03:51:18;;;;;;;4.55;1.40;;;;;;;3.45;60.29;97538.13;4190819;28;20048;-72
2022/02/19 03:53:18;;;;;;;2.45;1.00;;;;;;;3.35;60.29;97557.81;4185733;28;20040;-73
2022/02/19 03:55:18;;;;;;;6.90;1.40;;;;;;;3.27;60.98;97556.06;4186042;28;20154;-72
2022/02/19 03:57:19;;;;;;;7.68;2.97;;;;;;;3.21;61.61;97543.78;4189721;28;20040;-73
2022/02/19 03:59:19;;;;;;;3.92;1.05;;;;;;;3.04;62.71;97548.44;4196137;28;20043;-73
2022/02/19 04:01:20;;;;;;;3.72;0.98;;;;;;;3.02;63.07;97558.16;4185741;28;20082;-73
2022/02/19 04:03:20;;;;;;;7.28;1.50;;;;;;;2.92;63.69;97564.91;4185672;28;20040;-73
2022/02/19 04:05:20;;;;;;;3.80;1.38;;;;;;;2.93;63.10;97563.78;4196502;28;20036;-73
2022/02/19 04:07:21;;;;;;;4.00;1.27;;;;;;;2.97;63.13;97585.72;4184691;28;20048;-73
2022/02/19 04:09:21;;;;;;;4.85;1.50;;;;;;;2.92;63.55;97588.72;4200438;28;20044;-73
2022/02/19 04:11:21;;;;;;;4.43;1.10;;;;;;;2.82;63.76;97579.09;4196819;28;20070;-73
2022/02/19 04:13:22;;;;;;;3.20;1.50;;;;;;;2.92;62.41;97599.66;4200126;28;20113;-73
2022/02/19 04:15:22;;;;;;;11.10;1.45;;;;;;;2.97;62.15;97589.25;4201995;28;20059;-73
2022/02/19 04:17:23;;;;;;;1.80;1.08;;;;;;;2.91;63.00;97595.34;4199660;28;20040;-73
2022/02/19 04:19:23;;;;;;;5.88;1.02;;;;;;;2.90;63.46;97601.94;4200383;28;20041;-73
2022/02/19 04:21:23;;;;;;;5.30;1.02;;;;;;;2.87;63.85;97588.97;4201144;28;20052;-73
2022/02/19 04:23:23;;;;;;;2.95;0.95;;;;;;;2.93;62.92;97606.69;4200536;28;20357;-73
2022/02/19 04:25:27;;;;;;;2.08;1.10;;;;;;;2.90;63.21;97613.66;4190056;28;20437;-73
2022/02/19 04:27:28;;;;;;;3.53;1.23;;;;;;;2.93;62.95;97617.63;4184687;28;20041;-73
2022/02/19 04:29:28;;;;;;;3.03;1.55;;;;;;;2.97;62.70;97608.38;4185994;28;20045;-73
2022/02/19 04:31:28;;;;;;;4.97;1.50;;;;;;;2.92;62.61;97607.84;4187624;28;20047;-73
2022/02/19 04:33:29;;;;;;;6.40;1.35;;;;;;;2.92;62.23;97605.13;4195070;28;20080;-71
2022/02/19 04:35:31;;;;;;;4.50;1.15;;;;;;;2.95;62.30;97629.00;4189985;28;20625;-71
2022/02/19 04:37:31;;;;;;;7.80;1.45;;;;;;;3.00;61.25;97621.34;4184549;28;20138;-73
2022/02/19 04:39:32;;;;;;;3.53;1.35;;;;;;;2.99;61.76;97638.91;4185088;28;20037;-72
2022/02/19 04:41:32;;;;;;;5.53;1.65;;;;;;;2.98;61.70;97633.75;4185065;28;20134;-73
2022/02/19 04:43:33;;;;;;;3.33;1.58;;;;;;;3.05;60.75;97642.94;4185560;28;20045;-70
2022/02/19 04:45:33;;;;;;;3.28;1.00;;;;;;;3.02;61.30;97653.78;4185153;28;20049;-73
2022/02/19 04:47:34;;;;;;;5.07;1.17;;;;;;;3.05;60.65;97656.59;4189617;28;20028;-73
2022/02/19 04:49:34;;;;;;;4.28;1.10;;;;;;;3.05;60.65;97659.34;4197580;28;20101;-73
2022/02/19 04:51:36;;;;;;;4.90;1.10;;;;;;;3.01;60.97;97650.28;4192837;28;20523;-73
2022/02/19 04:53:36;;;;;;;4.03;1.35;;;;;;;3.00;61.06;97656.09;4202877;28;20040;-71
2022/02/19 04:55:36;;;;;;;3.22;1.23;;;;;;;3.04;59.92;97673.38;4203434;28;20105;-73
2022/02/19 04:57:43;;;;;;;3.80;1.20;;;;;;;3.07;59.98;97678.94;4202587;28;20475;-72
2022/02/19 04:59:43;;;;;;;8.35;1.65;;;;;;;3.08;59.65;97679.75;4202864;28;20050;-72
2022/02/19 05:01:43;;;;;;;4.45;1.17;;;;;;;3.09;59.54;97684.06;4203294;28;20039;-73
2022/02/19 05:03:43;;;;;;;3.40;1.55;;;;;;;3.04;59.95;97684.28;4200894;28;20044;-72
2022/02/19 05:05:44;;;;;;;5.15;1.67;;;;;;;3.04;59.65;97684.28;4202507;28;20439;-72
2022/02/19 05:07:44;;;;;;;6.70;1.17;;;;;;;3.12;59.95;97685.28;4190826;28;20456;-73
2022/02/19 05:09:44;;;;;;;5.03;1.08;;;;;;;3.08;60.02;97693.41;4189300;28;20036;-73
2022/02/19 05:11:45;;;;;;;3.97;1.08;;;;;;;3.08;59.94;97687.94;4188506;28;20451;-73
2022/02/19 05:13:45;;;;;;;3.67;1.35;;;;;;;3.11;59.90;97681.75;4187720;28;20036;-73
2022/02/19 05:15:46;;;;;;;3.65;1.10;;;;;;;3.09;60.24;97690.31;4187977;28;20041;-72
2022/02/19 05:17:51;;;;;;;3.45;1.17;;;;;;;3.07;60.55;97694.56;4187378;28;20052;-73
2022/02/19 05:19:51;;;;;;;3.90;1.00;;;;;;;3.04;60.73;97696.03;4202417;28;20644;-73
2022/02/19 05:21:53;;;;;;;6.53;1.60;;;;;;;2.97;61.33;97703.22;4202590;28;20123;-73
2022/02/19 05:23:53;;;;;;;6.22;1.15;;;;;;;3.08;61.00;97718.00;4203236;28;20135;-73
2022/02/19 05:25:53;;;;;;;5.20;1.30;;;;;;;3.13;60.82;97708.75;4203350;28;20546;-73
2022/02/19 05:27:54;;;;;;;2.42;1.27;;;;;;;3.19;60.50;97740.16;4201657;28;20098;-72
2022/02/19 05:29:54;;;;;;;6.20;1.77;;;;;;;3.14;61.10;97729.47;4192940;28;20041;-72
2022/02/19 05:31:54;;;;;;;4.80;1.13;;;;;;;3.16;61.53;97765.47;4191689;28;20048;-72
2022/02/19 05:33:54;;;;;;;4.60;1.50;;;;;;;3.11;62.44;97755.56;4196694;28;20424;-72
2022/02/19 05:35:55;;;;;;;5.15;1.35;;;;;;;3.04;63.67;97772.53;4192313;28;20041;-72
2022/02/19 05:37:55;;;;;;;4.65;1.40;;;;;;;2.90;65.57;97768.63;4186736;28;20113;-72
2022/02/19 05:39:57;;;;;;;5.72;1.20;;;;;;;2.76;66.90;97771.69;4190605;28;20340;-72
2022/02/19 05:41:57;;;;;;;4.40;1.02;;;;;;;2.62;69.81;97782.97;4202286;28;20036;-72
2022/02/19 05:44:00;;;;;;;5.60;1.10;;;;;;;2.51;69.38;97776.38;4187221;28;20048;-72
2022/02/19 05:46:00;;;;;;;6.72;1.50;;;;;;;2.42;69.78;97767.53;4187289;28;20040;-72
2022/02/19 05:48:00;;;;;;;2.22;1.25;;;;;;;2.38;70.14;97782.97;4186968;28;20503;-72
2022/02/19 05:50:01;;;;;;;4.38;1.05;;;;;;;2.32;70.21;97795.25;4185504;28;20446;-72
2022/02/19 05:52:01;;;;;;;2.78;1.40;;;;;;;2.29;71.18;97804.13;4187440;28;20064;-72
2022/02/19 05:54:02;;;;;;;4.57;1.23;;;;;;;2.23;72.72;97795.34;4187860;28;20097;-72
2022/02/19 05:56:03;;;;;;;2.10;1.00;;;;;;;2.11;74.95;97807.06;4187434;28;20299;-72
2022/02/19 05:58:03;;;;;;;1.98;0.90;;;;;;;1.94;74.23;97802.59;4186625;28;20036;-72
2022/02/19 06:00:04;;;;;;;3.03;1.38;;;;;;;1.95;72.50;97808.84;4187755;28;20401;-72
2022/02/19 06:02:05;;;;;;;1.45;1.15;;;;;;;1.90;72.43;97811.78;4187261;28;20020;-72
2022/02/19 06:04:05;;;;;;;1.30;1.15;;;;;;;1.90;73.28;97812.63;4191912;28;20439;-73
2022/02/19 06:06:06;;;;;;;2.55;0.85;;;;;;;1.87;72.66;97813.25;4201509;28;20429;-72
2022/02/19 06:08:06;;;;;;;3.22;1.25;;;;;;;1.97;71.88;97809.31;4201187;28;20033;-72
2022/02/19 06:10:07;;;;;;;1.30;0.90;;;;;;;1.91;72.47;97799.75;4196615;28;20032;-72
2022/02/19 06:12:08;;;;;;;0.88;0.80;;;;;;;1.92;72.61;97793.97;4201582;28;20047;-72
2022/02/19 06:14:09;;;;;;;1.25;0.82;;;;;;;1.95;72.01;97800.66;4202736;28;20036;-72
2022/02/19 06:16:09;;;;;;;1.17;0.80;;;;;;;1.90;72.93;97826.25;4200464;28;20024;-72
2022/02/19 06:18:09;;;;;;;3.13;1.17;;;;;;;1.85;73.05;97810.09;4186047;28;20068;-72
2022/02/19 06:20:10;;;;;;;3.05;1.00;;;;;;;1.88;72.43;97835.88;4186716;28;20376;-72
2022/02/19 06:22:11;;;;;;;3.65;1.10;;;;;;;1.83;72.98;97823.28;4187133;28;20290;-72
2022/02/19 06:24:11;;;;;;;2.47;1.00;;;;;;;1.83;72.59;97827.94;4189841;28;20368;-72
2022/02/19 06:26:11;;;;;;;1.83;0.80;;;;;;;1.80;73.46;97847.69;4188616;28;20033;-72
2022/02/19 06:28:12;;;;;;;2.25;1.15;;;;;;;1.86;71.64;97852.59;4187580;28;20369;-73
2022/02/19 06:30:15;;;;;;;2.25;0.93;;;;;;;1.89;71.29;97868.28;4192626;28;20352;-72
2022/02/19 06:32:16;;;;;;;3.75;1.50;;;;;;;1.90;70.50;97858.16;4189747;28;20064;-72
2022/02/19 06:34:16;;;;;;;3.38;1.17;;;;;;;1.92;68.73;97864.91;4186417;28;20340;-72
2022/02/19 06:36:16;;;;;;;7.65;2.72;;;;;;;2.02;67.46;97852.75;4186651;28;20036;-72
2022/02/19 06:38:17;;;;;;;4.32;1.05;;;;;;;2.06;67.29;97864.56;4186081;28;20028;-72
2022/02/19 06:40:17;;;;;;;4.18;1.23;;;;;;;2.10;67.23;97873.69;4201347;28;20031;-72
2022/02/19 06:42:17;;;;;;;3.40;1.17;;;;;;;2.08;67.62;97880.63;4201307;28;20024;-72
2022/02/19 06:44:18;;;;;;;6.03;1.35;;;;;;;2.09;68.07;97885.75;4201040;28;20028;-72
2022/02/19 06:46:18;;;;;;;6.72;2.38;;;;;;;2.05;66.65;97875.84;4202108;28;20043;-72
2022/02/19 06:48:18;;;;;;;2.85;1.10;;;;;;;2.06;66.87;97883.69;4188345;28;20032;-72
2022/02/19 06:50:19;;;;;;;5.35;1.20;;;;;;;2.09;67.42;97880.28;4190418;28;20456;-72
2022/02/19 06:52:19;;;;;;;3.65;1.25;;;;;;;2.16;65.94;97869.63;4191838;28;20038;-72
2022/02/19 06:54:19;;;;;;;3.42;1.50;;;;;;;2.23;65.21;97899.91;4192139;28;20024;-72
2022/02/19 06:56:20;;;;;;;4.28;1.52;;;;;;;2.25;65.59;97905.03;4185937;28;20044;-72
2022/02/19 06:58:20;;;;;;;6.97;2.28;;;;;;;2.25;65.23;97885.91;4187632;28;20063;-72
2022/02/19 07:00:21;;;;;;;4.25;1.35;;;;;;;2.31;64.72;97930.94;4081185;28;20050;-72
2022/02/19 07:02:21;;;;;;;3.08;1.58;;;;;;;2.30;65.20;97912.97;4188230;28;20040;-72
2022/02/19 07:04:22;;;;;;;4.38;1.30;;;;;;;2.30;64.97;97923.09;4190589;28;20075;-72
2022/02/19 07:06:23;;;;;;;2.15;1.30;;;;;;;2.27;64.67;97924.59;4190303;28;20486;-72
2022/02/19 07:08:23;;;;;;;4.53;1.38;;;;;;;2.31;64.59;97935.63;4189747;28;20686;-72
2022/02/19 07:10:25;;;;;;;1.33;1.02;;;;;;;2.41;63.61;97932.47;4192907;28;20140;-72
2022/02/19 07:12:25;;;;;;;3.65;1.27;;;;;;;2.39;63.95;97949.16;4188415;28;20040;-72
2022/02/19 07:14:26;;;;;;;5.97;1.50;;;;;;;2.39;62.98;97938.25;4189790;28;20076;-72
2022/02/19 07:16:26;;;;;;;3.03;1.20;;;;;;;2.39;62.50;97942.91;4188210;28;20037;-72
2022/02/19 07:18:26;;;;;;;3.10;1.30;;;;;;;2.37;62.46;97945.19;4188591;28;20040;-72
2022/02/19 07:20:27;;;;;;;2.00;1.35;;;;;;;2.38;62.35;97949.50;4191777;28;20036;-72
2022/02/19 07:22:27;;;;;;;3.75;1.20;;;;;;;2.43;63.05;97954.78;4186568;28;20459;-72
2022/02/19 07:24:28;;;;;;;2.25;1.30;;;;;;;2.45;62.13;97963.41;4186000;28;20091;-72
2022/02/19 07:26:28;;;;;;;4.60;1.25;;;;;;;2.46;62.05;97975.94;4193592;28;20060;-72
2022/02/19 07:28:29;;;;;;;1.88;1.25;;;;;;;2.60;61.70;97970.19;4189551;28;20482;-72
2022/02/19 07:30:29;;;;;;;2.65;1.58;;;;;;;2.61;60.88;97978.03;4187554;28;20072;-72
2022/02/19 07:32:29;;;;;;;4.57;1.70;;;;;;;2.66;60.97;97982.50;4189759;28;20048;-72
2022/02/19 07:34:30;;;;;;;5.03;1.45;;;;;;;2.60;61.33;98017.41;4186157;28;20048;-72
2022/02/19 07:36:30;;;;;;;3.85;1.50;;;;;;;2.68;61.08;98002.84;4187877;28;20054;-72
2022/02/19 07:38:30;;;;;;;3.35;1.38;;;;;;;2.67;61.16;98004.00;4195439;28;20602;-72
2022/02/19 07:40:31;;;;;;;4.40;1.60;;;;;;;2.69;60.99;98012.66;4189112;28;20295;-72
2022/02/19 07:42:32;;;;;;;5.63;1.58;;;;;;;2.70;60.12;98007.97;4192795;28;20044;-72
2022/02/19 07:44:32;;;;;;;3.70;1.00;;;;;;;2.74;60.62;98025.31;4187535;28;20032;-72
2022/02/19 07:46:33;;;;;;;2.90;1.30;;;;;;;2.74;60.59;98026.09;4193988;28;20155;-72
2022/02/19 07:48:33;;;;;;;2.45;1.10;;;;;;;2.87;59.84;98023.38;4187194;28;20052;-72
2022/02/19 07:59:49;;;;;;;4.10;1.35;;;;;;;3.04;59.55;98055.97;4186290;28;20091;-72
2022/02/19 08:01:49;;;;;;;4.53;1.20;;;;;;;3.04;60.31;98066.91;4184375;28;20408;-72
2022/02/19 08:03:50;;;;;;;6.47;1.67;;;;;;;3.02;59.69;98066.47;4189212;28;20036;-72
2022/02/19 08:05:52;;;;;;;2.75;1.30;;;;;;;2.99;59.72;98061.69;4190164;28;20055;-72
2022/02/19 08:07:52;;;;;;;3.67;1.17;;;;;;;2.99;59.48;98073.41;4195479;28;20040;-72
2022/02/19 08:09:52;;;;;;;5.28;1.40;;;;;;;3.04;59.59;98073.19;4186400;28;20488;-72
2022/02/19 08:11:53;;;;;;;6.10;1.40;;;;;;;3.05;59.49;98084.91;4186458;28;20346;-72
2022/02/19 08:13:53;;;;;;;2.15;1.45;;;;;;;3.10;60.09;98084.72;4185455;28;20049;-72
2022/02/19 08:15:55;;;;;;;3.47;1.40;;;;;;;3.10;59.85;98098.38;4185711;28;20049;-72
2022/02/19 08:17:55;;;;;;;4.85;1.30;;;;;;;3.14;59.21;98109.41;4187200;28;20548;-72
2022/02/19 08:19:56;;;;;;;5.72;1.13;;;;;;;3.16;59.17;98109.91;4187223;28;20135;-72
2022/02/19 08:21:57;;;;;;;3.92;1.20;;;;;;;3.20;59.22;98108.88;4185842;28;20037;-72
2022/02/19 08:23:58;;;;;;;3.15;1.20;;;;;;;3.27;59.07;98111.06;4188318;28;20036;-72
2022/02/19 08:25:58;;;;;;;4.82;1.50;;;;;;;3.28;59.02;98121.66;4191097;28;20036;-72
2022/02/19 08:27:58;;;;;;;9.68;1.73;;;;;;;3.33;59.14;98117.91;4202528;28;20094;-72
2022/02/19 08:29:59;;;;;;;5.88;1.55;;;;;;;3.43;59.00;98133.06;4204093;28;20047;-72
2022/02/19 08:31:59;;;;;;;2.78;1.15;;;;;;;3.43;58.94;98122.94;4197351;28;20045;-72
2022/02/19 08:33:59;;;;;;;4.57;1.58;;;;;;;3.49;58.22;98132.53;4195030;28;20163;-73
2022/02/19 08:36:00;;;;;;;3.97;1.80;;;;;;;3.55;58.38;98147.56;4189069;28;20051;-72
2022/02/19 08:38:00;;;;;;;2.60;1.10;;;;;;;3.51;58.77;98134.91;4192195;28;20377;-72
2022/02/19 08:40:01;;;;;;;2.97;1.00;;;;;;;3.52;58.76;98139.25;4189146;28;20609;-73
2022/02/19 08:42:03;;;;;;;5.82;1.40;;;;;;;3.57;57.24;98148.03;4188969;28;20028;-72
2022/02/19 08:44:03;;;;;;;6.93;1.67;;;;;;;3.62;57.88;98164.22;4188790;28;20143;-72
2022/02/19 08:46:04;;;;;;;3.85;1.60;;;;;;;3.65;56.40;98162.75;4188945;28;20566;-72
2022/02/19 08:48:05;;;;;;;2.38;1.40;;;;;;;3.59;56.68;98161.38;4193973;28;20460;-72
2022/02/19 08:50:05;;;;;;;5.38;1.80;;;;;;;3.68;57.15;98175.75;4197545;28;20399;-73
2022/02/19 08:52:06;;;;;;;6.97;1.52;;;;;;;3.61;56.38;98172.75;4192812;28;20036;-73
2022/02/19 08:54:07;;;;;;;3.55;1.67;;;;;;;3.64;55.95;98189.31;4192480;28;20285;-73
2022/02/19 08:56:07;;;;;;;4.47;1.70;;;;;;;3.69;56.08;98176.53;4189141;28;20025;-72
2022/02/19 08:58:08;;;;;;;2.88;1.15;;;;;;;3.73;56.19;98188.41;4187736;28;20043;-72
2022/02/19 09:00:13;;;;;;;4.80;1.65;;;;;;;3.75;55.17;98213.50;4188621;28;20040;-72
2022/02/19 09:02:13;;;;;;;10.23;1.80;;;;;;;3.76;55.86;98201.41;4198131;28;20032;-72
2022/02/19 09:04:14;;;;;;;5.55;1.73;;;;;;;3.75;56.39;98192.41;4196602;28;20028;-72
2022/02/19 09:06:14;;;;;;;5.82;1.60;;;;;;;3.81;56.93;98202.00;4193333;28;20035;-72
2022/02/19 09:08:15;;;;;;;4.38;1.55;;;;;;;3.88;54.86;98217.84;4192968;28;20051;-72
2022/02/19 09:10:17;;;;;;;3.30;1.58;;;;;;;3.97;55.28;98206.78;4189442;28;20136;-72
2022/02/19 09:12:18;;;;;;;3.75;1.55;;;;;;;3.94;54.89;98206.34;4188013;28;20164;-72
2022/02/19 09:14:18;;;;;;;3.45;1.50;;;;;;;3.97;54.66;98201.31;4191387;28;20090;-72
2022/02/19 09:16:19;;;;;;;3.70;1.60;;;;;;;3.92;55.34;98208.63;4190558;28;20183;-72
2022/02/19 09:18:19;;;;;;;5.32;1.90;;;;;;;3.99;55.73;98207.25;4186003;28;20538;-72
2022/02/19 09:20:21;;;;;;;5.03;1.60;;;;;;;4.07;55.14;98222.78;4189867;28;20033;-72
2022/02/19 09:22:21;;;;;;;3.60;1.67;;;;;;;4.14;55.08;98220.28;4194403;28;20036;-72
2022/02/19 09:24:22;;;;;;;4.05;2.05;;;;;;;4.26;54.25;98236.69;4189181;28;20094;-72
2022/02/19 09:26:23;;;;;;;5.50;1.40;;;;;;;4.24;54.16;98239.00;4193508;28;20050;-72
2022/02/19 09:28:24;;;;;;;3.97;1.52;;;;;;;4.27;54.37;98221.88;4196732;28;20044;-72
2022/02/19 09:30:25;;;;;;;3.53;1.63;;;;;;;4.28;54.85;98230.88;4193441;28;20499;-72
2022/02/19 09:32:25;;;;;;;3.97;1.50;;;;;;;4.26;54.03;98231.22;4191487;28;20063;-72
2022/02/19 09:34:25;;;;;;;8.02;1.90;;;;;;;4.30;54.34;98237.59;4187784;28;20032;-73
2022/02/19 09:36:25;;;;;;;4.63;1.75;;;;;;;4.34;54.42;98237.72;4199049;28;20467;-72
2022/02/19 09:38:26;;;;;;;5.07;1.70;;;;;;;4.38;53.93;98238.63;4201175;28;20032;-72
2022/02/19 09:40:26;;;;;;;6.70;2.03;;;;;;;4.41;53.82;98244.22;4191198;28;20080;-72
2022/02/19 09:42:27;;;;;;;4.95;1.73;;;;;;;4.39;55.19;98262.97;4191322;28;20048;-73
2022/02/19 09:44:27;;;;;;;3.75;2.20;;;;;;;4.51;54.34;98253.94;4192380;28;20048;-73